Time;durP1;ratioP1;P1;durP2;ratioP2;P2;SDS_P1;SDS_P2;PMS_P1;PMS_P2;Temp;Humidity;BMP_temperature;BMP_pressure;BME280_temperature;BME280_humidity;BME280_pressure;Samples;Min_cycle;Max_cycle;Signal;HPM_P1;HPM_P2
2021/09/09 00:01:54;;;;;;;;;26.00;23.00;;;;;24.91;100.00;100746.78;5013837;28;45565;-75
2021/09/09 00:04:20;;;;;;;;;22.00;20.25;;;;;24.98;100.00;100758.69;5014375;28;45607;-72
2021/09/09 00:06:45;;;;;;;;;20.00;18.50;;;;;24.93;100.00;100755.53;5015139;28;46543;-72
2021/09/09 00:09:10;;;;;;;;;24.25;21.75;;;;;24.98;100.00;100766.72;5014805;28;45479;-73
2021/09/09 00:11:36;;;;;;;;;17.50;16.25;;;;;24.82;100.00;100742.09;5015878;28;45450;-72
2021/09/09 00:14:01;;;;;;;;;19.50;19.00;;;;;24.94;100.00;100775.06;5015617;28;45330;-70
2021/09/09 00:16:27;;;;;;;;;19.25;18.00;;;;;24.82;100.00;100762.59;5015450;28;46045;-72
2021/09/09 00:18:52;;;;;;;;;23.25;22.25;;;;;24.79;100.00;100771.69;5015689;28;45492;-71
2021/09/09 00:21:17;;;;;;;;;23.50;21.50;;;;;24.83;100.00;100786.53;5015789;28;45386;-71
2021/09/09 00:23:43;;;;;;;;;21.25;20.50;;;;;24.79;100.00;100776.19;5015870;28;45381;-71
2021/09/09 00:26:08;;;;;;;;;18.75;17.25;;;;;24.75;100.00;100775.56;5013997;28;45425;-71
2021/09/09 00:28:34;;;;;;;;;21.50;21.00;;;;;24.72;100.00;100770.47;5015286;28;45346;-72
2021/09/09 00:30:59;;;;;;;;;20.75;20.00;;;;;24.73;100.00;100767.66;5015842;28;45355;-71
2021/09/09 00:33:25;;;;;;;;;19.25;18.00;;;;;24.81;100.00;100771.59;5015753;28;45374;-72
2021/09/09 00:35:51;;;;;;;;;24.50;23.00;;;;;24.79;100.00;100765.50;5014977;28;46649;-72
2021/09/09 00:38:16;;;;;;;;;22.50;21.00;;;;;24.69;100.00;100752.00;5015417;28;45429;-70
2021/09/09 00:40:42;;;;;;;;;21.00;20.50;;;;;24.68;100.00;100748.47;5015537;28;45489;-73
2021/09/09 00:43:07;;;;;;;;;20.25;19.00;;;;;24.69;100.00;100747.50;5026601;28;45426;-70
2021/09/09 00:45:33;;;;;;;;;20.75;20.75;;;;;24.64;100.00;100741.63;5004267;28;46385;-71
2021/09/09 00:47:59;;;;;;;;;22.50;19.75;;;;;24.58;100.00;100735.88;4997009;28;45391;-71
2021/09/09 00:50:24;;;;;;;;;20.00;20.00;;;;;24.57;100.00;100739.50;5015359;28;45286;-79
2021/09/09 00:52:51;;;;;;;;;22.25;19.75;;;;;24.55;100.00;100747.63;5015756;28;45444;-72
2021/09/09 00:55:18;;;;;;;;;21.00;19.25;;;;;24.51;100.00;100762.19;5015439;28;46487;-72
2021/09/09 00:57:45;;;;;;;;;25.25;21.50;;;;;24.45;100.00;100756.44;5014017;28;45652;-81
2021/09/09 01:00:12;;;;;;;;;24.00;23.50;;;;;24.38;100.00;100759.53;5015445;28;45341;-70
2021/09/09 01:02:38;;;;;;;;;26.00;23.00;;;;;24.28;100.00;100746.94;5015233;28;45382;-71
2021/09/09 01:05:04;;;;;;;;;26.00;24.00;;;;;24.27;100.00;100753.22;5016920;28;46629;-78
2021/09/09 01:07:30;;;;;;;;;22.25;21.25;;;;;24.21;100.00;100750.97;5016916;28;45790;-70
2021/09/09 01:09:57;;;;;;;;;23.50;21.75;;;;;24.20;100.00;100752.78;5018723;28;45235;-72
2021/09/09 01:12:22;;;;;;;;;22.50;21.50;;;;;24.23;100.00;100781.09;5018139;28;45453;-72
2021/09/09 01:14:48;;;;;;;;;21.50;20.00;;;;;24.19;100.00;100772.44;5018110;28;45551;-71
2021/09/09 01:17:13;;;;;;;;;22.25;21.00;;;;;24.14;100.00;100767.41;5018525;28;45373;-70
2021/09/09 01:19:38;;;;;;;;;22.00;20.25;;;;;24.16;100.00;100774.47;5018031;28;45540;-72
2021/09/09 01:22:04;;;;;;;;;23.25;22.75;;;;;24.17;100.00;100782.34;5018619;28;45457;-70
2021/09/09 01:24:30;;;;;;;;;24.75;23.00;;;;;24.14;100.00;100787.91;5017989;28;46493;-71
2021/09/09 01:26:59;;;;;;;;;27.00;24.50;;;;;24.08;100.00;100781.19;4996915;28;45597;-71
2021/09/09 01:29:29;;;;;;;;;22.00;20.00;;;;;24.08;100.00;100789.22;5010816;28;46135;-77
2021/09/09 01:31:57;;;;;;;;;22.25;21.50;;;;;24.14;100.00;100791.44;5018385;28;45374;-79
2021/09/09 01:34:24;;;;;;;;;17.50;16.50;;;;;24.14;100.00;100785.25;5018332;28;45553;-74
2021/09/09 01:36:51;;;;;;;;;22.50;22.50;;;;;24.14;100.00;100780.75;5014263;28;45861;-70
2021/09/09 01:39:16;;;;;;;;;20.25;20.00;;;;;24.12;100.00;100784.50;5017804;28;45504;-72
2021/09/09 01:41:42;;;;;;;;;20.75;20.25;;;;;24.16;100.00;100785.13;5018120;28;45448;-71
2021/09/09 01:44:07;;;;;;;;;22.75;18.50;;;;;24.12;100.00;100782.69;5025459;28;45866;-71
2021/09/09 01:46:33;;;;;;;;;24.50;23.25;;;;;24.14;100.00;100782.56;5023898;28;45392;-71
2021/09/09 01:48:59;;;;;;;;;24.50;22.25;;;;;24.14;100.00;100793.25;5004187;28;45424;-71
2021/09/09 01:51:26;;;;;;;;;23.75;22.75;;;;;24.14;100.00;100793.25;5017706;28;45804;-71
2021/09/09 01:53:51;;;;;;;;;26.00;23.50;;;;;24.07;100.00;100784.84;5021804;28;47229;-71
2021/09/09 01:56:17;;;;;;;;;22.00;21.00;;;;;24.20;100.00;100807.97;5027517;28;45687;-71
2021/09/09 01:58:42;;;;;;;;;22.50;21.25;;;;;24.20;100.00;100810.63;5017675;28;45327;-71
2021/09/09 02:01:09;;;;;;;;;25.00;21.75;;;;;24.22;100.00;100804.25;4999599;28;45514;-71
2021/09/09 02:03:35;;;;;;;;;26.50;22.75;;;;;24.24;100.00;100806.81;5017493;28;46169;-72
2021/09/09 02:06:00;;;;;;;;;23.50;22.75;;;;;24.22;100.00;100809.59;5017739;28;45316;-71
2021/09/09 02:08:26;;;;;;;;;24.00;21.75;;;;;24.22;100.00;100793.59;4999928;28;45460;-71
2021/09/09 02:10:51;;;;;;;;;27.00;24.50;;;;;24.28;100.00;100802.97;5031428;28;45445;-71
2021/09/09 02:13:16;;;;;;;;;24.00;21.50;;;;;24.24;100.00;100797.00;5016546;28;46308;-70
2021/09/09 02:15:42;;;;;;;;;27.25;25.75;;;;;24.22;100.00;100796.25;5016789;28;45706;-70
2021/09/09 02:18:08;;;;;;;;;25.25;24.00;;;;;24.12;100.00;100782.69;5003576;28;45368;-70
2021/09/09 02:20:34;;;;;;;;;26.50;24.25;;;;;24.15;100.00;100797.63;5017420;28;45374;-70
2021/09/09 02:22:59;;;;;;;;;27.50;26.00;;;;;24.07;100.00;100794.66;5016685;28;46254;-71
2021/09/09 02:25:25;;;;;;;;;23.75;23.50;;;;;24.01;100.00;100782.59;5009372;28;45468;-76
2021/09/09 02:27:50;;;;;;;;;26.75;26.00;;;;;24.06;100.00;100796.47;5011306;28;45780;-71
2021/09/09 02:30:15;;;;;;;;;27.75;25.00;;;;;24.00;100.00;100790.72;5017613;28;45465;-71
2021/09/09 02:32:41;;;;;;;;;28.25;26.00;;;;;23.97;100.00;100782.91;5005923;28;46564;-71
2021/09/09 02:35:06;;;;;;;;;27.00;25.25;;;;;23.98;100.00;100793.44;4995493;28;45395;-70
2021/09/09 02:37:32;;;;;;;;;27.00;24.00;;;;;23.91;100.00;100784.19;5007094;28;45391;-70
2021/09/09 02:39:57;;;;;;;;;25.25;23.00;;;;;23.98;100.00;100784.59;5017612;28;45298;-71
2021/09/09 02:42:23;;;;;;;;;25.00;23.75;;;;;23.91;100.00;100781.50;5017046;28;46340;-70
2021/09/09 02:44:48;;;;;;;;;27.75;26.00;;;;;23.94;100.00;100802.63;5016528;28;45341;-70
2021/09/09 02:47:14;;;;;;;;;29.75;26.50;;;;;23.88;100.00;100803.06;5016756;28;45382;-69
2021/09/09 02:49:39;;;;;;;;;24.75;24.00;;;;;23.87;100.00;100798.69;5017250;28;45485;-69
2021/09/09 02:52:05;;;;;;;;;25.50;24.25;;;;;23.85;100.00;100795.28;5016729;28;45334;-70
2021/09/09 02:54:30;;;;;;;;;24.50;23.00;;;;;23.81;100.00;100799.13;5016046;28;45495;-70
2021/09/09 02:56:56;;;;;;;;;29.75;26.25;;;;;23.80;100.00;100803.59;5016968;28;45480;-71
2021/09/09 02:59:21;;;;;;;;;26.50;24.75;;;;;23.81;100.00;100804.44;5017128;28;45453;-70
2021/09/09 03:01:46;;;;;;;;;29.00;24.75;;;;;23.73;100.00;100794.28;5016632;28;46145;-70
2021/09/09 03:04:12;;;;;;;;;25.75;23.50;;;;;23.67;100.00;100785.88;5030522;28;45527;-70
2021/09/09 03:06:37;;;;;;;;;26.75;23.00;;;;;23.66;100.00;100790.34;5027440;28;45456;-69
2021/09/09 03:09:03;;;;;;;;;25.00;23.75;;;;;23.63;100.00;100793.22;5019621;28;45759;-70
2021/09/09 03:11:28;;;;;;;;;26.75;25.50;;;;;23.56;100.00;100788.38;5007684;28;47012;-70
2021/09/09 03:13:53;;;;;;;;;25.25;24.50;;;;;23.52;100.00;100783.25;5036621;28;45364;-69
2021/09/09 03:16:22;;;;;;;;;28.25;26.00;;;;;23.48;100.00;100784.41;5026750;28;45358;-69
2021/09/09 03:18:47;;;;;;;;;28.75;27.50;;;;;23.51;100.00;100789.53;5016967;28;45299;-70
2021/09/09 03:21:13;;;;;;;;;29.00;26.00;;;;;23.53;100.00;100790.28;5014824;28;46894;-70
2021/09/09 03:23:38;;;;;;;;;26.00;25.25;;;;;23.50;100.00;100790.47;5003860;28;45501;-70
2021/09/09 03:26:03;;;;;;;;;25.25;23.00;;;;;23.45;100.00;100773.97;5016079;28;45359;-70
2021/09/09 03:28:29;;;;;;;;;26.50;23.50;;;;;23.52;100.00;100790.38;5030441;28;45303;-69
2021/09/09 03:30:54;;;;;;;;;27.50;25.00;;;;;23.37;100.00;100768.31;4997977;28;47472;-70
2021/09/09 03:33:20;;;;;;;;;30.25;25.50;;;;;23.54;100.00;100793.81;5002506;28;45303;-69
2021/09/09 03:35:45;;;;;;;;;27.00;26.25;;;;;23.52;100.00;100783.25;5016610;28;45425;-69
2021/09/09 03:38:11;;;;;;;;;26.00;26.00;;;;;23.55;100.00;100786.69;5015842;28;45318;-70
2021/09/09 03:40:36;;;;;;;;;27.25;26.00;;;;;23.57;100.00;100788.31;5016345;28;45445;-70
2021/09/09 03:43:02;;;;;;;;;25.25;24.50;;;;;23.58;100.00;100781.19;5002969;28;45521;-74
2021/09/09 03:45:28;;;;;;;;;31.00;25.50;;;;;23.58;100.00;100778.50;5029098;28;45438;-71
2021/09/09 03:47:54;;;;;;;;;27.50;25.00;;;;;23.51;100.00;100770.00;4998096;28;45495;-70
2021/09/09 03:50:19;;;;;;;;;25.75;22.50;;;;;23.55;100.00;100768.03;5015828;28;46344;-70
2021/09/09 03:52:45;;;;;;;;;24.50;21.50;;;;;23.58;100.00;100771.38;5016118;28;45632;-71
2021/09/09 03:55:11;;;;;;;;;27.50;24.75;;;;;23.55;100.00;100762.69;5015156;28;45388;-70
2021/09/09 03:57:37;;;;;;;;;26.75;24.25;;;;;23.59;100.00;100772.22;5003538;28;45386;-70
2021/09/09 04:00:03;;;;;;;;;24.00;23.00;;;;;23.60;100.00;100768.59;4994422;28;47449;-71
2021/09/09 04:02:29;;;;;;;;;26.25;24.75;;;;;23.61;100.00;100784.47;5028739;28;45696;-70
2021/09/09 04:04:55;;;;;;;;;26.25;25.00;;;;;23.49;100.00;100766.59;5016220;28;45745;-73
2021/09/09 04:07:20;;;;;;;;;30.50;28.75;;;;;23.60;100.00;100785.44;5017786;28;45508;-77
2021/09/09 04:09:46;;;;;;;;;26.00;23.75;;;;;23.57;100.00;100774.13;5019417;28;46392;-71
2021/09/09 04:12:11;;;;;;;;;27.50;25.75;;;;;23.62;100.00;100777.34;5007097;28;45442;-70
2021/09/09 04:14:36;;;;;;;;;21.75;20.75;;;;;23.57;100.00;100772.31;5016107;28;45424;-71
2021/09/09 04:17:02;;;;;;;;;29.00;23.75;;;;;23.58;100.00;100776.69;5015947;28;45346;-70
2021/09/09 04:19:27;;;;;;;;;26.00;23.50;;;;;23.59;100.00;100777.53;5029040;28;45541;-71
2021/09/09 04:21:53;;;;;;;;;25.75;24.25;;;;;23.55;100.00;100776.88;5015720;28;45459;-70
2021/09/09 04:24:20;;;;;;;;;27.00;25.00;;;;;23.50;100.00;100763.84;5015099;28;45366;-71
2021/09/09 04:26:46;;;;;;;;;25.50;24.75;;;;;23.52;100.00;100766.38;5001805;28;45590;-70
2021/09/09 04:29:12;;;;;;;;;28.75;26.75;;;;;23.45;100.00;100760.63;4997580;28;46137;-70
2021/09/09 04:31:38;;;;;;;;;25.50;23.00;;;;;23.43;100.00;100754.56;5017812;28;45319;-73
2021/09/09 04:34:03;;;;;;;;;28.50;26.50;;;;;23.46;100.00;100770.34;5026197;28;45454;-70
2021/09/09 04:36:28;;;;;;;;;28.50;26.75;;;;;23.41;100.00;100761.81;4997795;28;45565;-70
2021/09/09 04:38:54;;;;;;;;;29.00;27.00;;;;;23.43;100.00;100767.03;5014449;28;47791;-69
2021/09/09 04:41:19;;;;;;;;;25.25;24.00;;;;;23.41;100.00;100760.94;5018807;28;45409;-70
2021/09/09 04:43:46;;;;;;;;;27.00;24.75;;;;;23.39;100.00;100760.19;5019062;28;45309;-70
2021/09/09 04:46:11;;;;;;;;;27.50;25.25;;;;;23.38;100.00;100758.50;5029959;28;45422;-70
2021/09/09 04:48:37;;;;;;;;;26.25;24.00;;;;;23.35;100.00;100754.22;5021237;28;47233;-70
2021/09/09 04:51:03;;;;;;;;;27.50;26.25;;;;;23.39;100.00;100760.19;5001437;28;45470;-71
2021/09/09 04:53:28;;;;;;;;;26.50;24.50;;;;;23.35;100.00;100748.03;5018401;28;45514;-70
2021/09/09 04:55:54;;;;;;;;;26.25;25.50;;;;;23.35;100.00;100750.72;5019249;28;45384;-70
2021/09/09 04:58:20;;;;;;;;;26.50;25.00;;;;;23.26;100.00;100744.16;5018887;28;46201;-75
2021/09/09 05:00:45;;;;;;;;;29.50;27.25;;;;;23.27;100.00;100756.53;5018579;28;45346;-79
2021/09/09 05:03:11;;;;;;;;;31.75;29.25;;;;;23.23;100.00;100755.03;5018059;28;45856;-72
2021/09/09 05:05:36;;;;;;;;;31.00;29.25;;;;;23.18;100.00;100751.84;5018814;28;45353;-67
2021/09/09 05:08:01;;;;;;;;;29.50;26.50;;;;;23.16;100.00;100751.09;5018454;28;46304;-67
2021/09/09 05:10:27;;;;;;;;;30.00;28.00;;;;;23.15;100.00;100752.03;5007577;28;45307;-67
2021/09/09 05:12:53;;;;;;;;;32.00;29.50;;;;;23.05;100.00;100735.78;5027333;28;45516;-68
2021/09/09 05:15:18;;;;;;;;;38.00;32.75;;;;;23.09;100.00;100742.66;5018621;28;45435;-69
2021/09/09 05:17:43;;;;;;;;;31.75;28.25;;;;;23.07;100.00;100741.88;4999694;28;47213;-68
2021/09/09 05:20:09;;;;;;;;;31.25;27.00;;;;;23.06;100.00;100744.63;5017994;28;45326;-69
2021/09/09 05:22:35;;;;;;;;;28.50;27.25;;;;;23.04;100.00;100747.41;5018380;28;45314;-69
2021/09/09 05:25:01;;;;;;;;;31.25;29.00;;;;;23.05;100.00;100756.25;5018177;28;45350;-68
2021/09/09 05:27:27;;;;;;;;;28.00;26.00;;;;;23.02;100.00;100748.47;5000191;28;47948;-68
2021/09/09 05:29:52;;;;;;;;;30.75;26.75;;;;;23.04;100.00;100757.22;5017572;28;45461;-68
2021/09/09 05:32:17;;;;;;;;;33.00;28.50;;;;;22.96;100.00;100747.06;5018059;28;45389;-68
2021/09/09 05:34:43;;;;;;;;;28.25;27.25;;;;;23.04;100.00;100751.88;5018249;28;45377;-67
2021/09/09 05:37:08;;;;;;;;;31.25;27.50;;;;;22.95;100.00;100739.19;5017399;28;46586;-68
2021/09/09 05:39:33;;;;;;;;;29.25;27.00;;;;;23.10;100.00;100768.34;5017947;28;45426;-68
2021/09/09 05:41:59;;;;;;;;;29.50;27.50;;;;;23.10;100.00;100770.16;5017863;28;45736;-68
2021/09/09 05:44:24;;;;;;;;;31.00;27.25;;;;;23.14;100.00;100782.31;5018235;28;45624;-68
2021/09/09 05:46:49;;;;;;;;;32.25;26.75;;;;;23.15;100.00;100790.19;5017444;28;46359;-70
2021/09/09 05:49:15;;;;;;;;;31.75;29.00;;;;;23.17;100.00;100793.59;5017220;28;45407;-71
2021/09/09 05:51:40;;;;;;;;;28.00;27.50;;;;;23.17;100.00;100795.41;5006717;28;45599;-67
2021/09/09 05:54:05;;;;;;;;;32.00;29.75;;;;;23.05;100.00;100783.75;5013218;28;45614;-67
2021/09/09 05:56:31;;;;;;;;;30.50;27.50;;;;;23.18;100.00;100802.44;5015893;28;46207;-67
2021/09/09 05:58:56;;;;;;;;;30.25;26.75;;;;;23.15;100.00;100803.50;5017898;28;45457;-67
2021/09/09 06:01:24;;;;;;;;;37.50;30.75;;;;;23.16;100.00;100802.56;5017767;28;45288;-68
2021/09/09 06:03:50;;;;;;;;;33.50;28.00;;;;;23.23;100.00;100819.81;5017426;28;45510;-67
2021/09/09 06:06:16;;;;;;;;;28.25;27.25;;;;;23.27;100.00;100812.47;5017335;28;46445;-67
2021/09/09 06:08:43;;;;;;;;;37.50;32.00;;;;;23.30;100.00;100804.28;5017052;28;45474;-69
2021/09/09 06:11:09;;;;;;;;;31.75;29.25;;;;;23.39;100.00;100809.03;5003263;28;45432;-68
2021/09/09 06:13:34;;;;;;;;;35.25;29.50;;;;;23.46;100.00;100823.63;5000039;28;45615;-68
2021/09/09 06:16:00;;;;;;;;;34.75;30.00;;;;;23.48;100.00;100813.72;5023979;28;46427;-68
2021/09/09 06:18:25;;;;;;;;;35.75;30.00;;;;;23.52;100.00;100815.22;5030544;28;45493;-71
2021/09/09 06:20:51;;;;;;;;;32.25;30.50;;;;;23.41;100.00;100791.13;5017709;28;45408;-67
2021/09/09 06:23:16;;;;;;;;;32.25;29.00;;;;;23.61;100.00;100812.94;4999469;28;45630;-68
2021/09/09 06:25:41;;;;;;;;;33.75;30.75;;;;;23.61;100.00;100810.28;5017173;28;45426;-74
2021/09/09 06:28:07;;;;;;;;;32.50;30.75;;;;;23.68;100.00;100825.75;5018154;28;45325;-71
2021/09/09 06:30:32;;;;;;;;;29.50;28.25;;;;;23.66;100.00;100824.16;5017960;28;45389;-67
2021/09/09 06:32:58;;;;;;;;;30.50;29.50;;;;;23.70;100.00;100830.97;5017932;28;45510;-66
2021/09/09 06:35:23;;;;;;;;;34.25;28.75;;;;;23.49;100.00;100801.25;5017651;28;46602;-66
2021/09/09 06:37:49;;;;;;;;;33.25;30.00;;;;;23.68;100.00;100832.91;5018732;28;45219;-66
2021/09/09 06:40:14;;;;;;;;;29.25;27.75;;;;;23.63;100.00;100827.88;5017816;28;45269;-70
2021/09/09 06:42:40;;;;;;;;;37.25;32.25;;;;;23.71;100.00;100836.19;5027963;28;45300;-71
2021/09/09 06:45:08;;;;;;;;;30.75;29.25;;;;;23.72;100.00;100845.91;5030074;28;45299;-71
2021/09/09 06:47:33;;;;;;;;;38.50;31.75;;;;;23.74;100.00;100844.00;5031146;28;45774;-72
2021/09/09 06:49:59;;;;;;;;;36.50;30.50;;;;;23.69;100.00;100840.78;5037489;28;45274;-71
2021/09/09 06:52:24;;;;;;;;;31.00;30.00;;;;;23.63;100.00;100841.22;5037422;28;45223;-71
2021/09/09 06:54:50;;;;;;;;;35.50;31.00;;;;;23.63;100.00;100849.22;5018141;28;46763;-71
2021/09/09 06:57:15;;;;;;;;;32.25;30.00;;;;;23.66;100.00;100846.34;5017431;28;45518;-72
2021/09/09 06:59:41;;;;;;;;;31.25;28.25;;;;;23.68;100.00;100856.88;5027017;28;45416;-72
2021/09/09 07:02:07;;;;;;;;;36.75;32.00;;;;;23.60;100.00;100854.75;5036920;28;45434;-71
2021/09/09 07:04:32;;;;;;;;;36.50;31.00;;;;;23.54;100.00;100852.47;5029141;28;45489;-71
2021/09/09 07:06:58;;;;;;;;;33.50;30.00;;;;;23.45;100.00;100848.56;5017462;28;45270;-69
2021/09/09 07:09:23;;;;;;;;;36.50;31.50;;;;;23.41;100.00;100836.41;5019701;28;45664;-70
2021/09/09 07:11:48;;;;;;;;;43.25;33.00;;;;;23.34;100.00;100824.47;5032027;28;45299;-71
2021/09/09 07:14:14;;;;;;;;;33.75;30.75;;;;;23.48;100.00;100847.53;5016991;28;46391;-70
2021/09/09 07:16:39;;;;;;;;;35.00;30.00;;;;;23.39;100.00;100826.81;5020662;28;45448;-70
2021/09/09 07:19:04;;;;;;;;;44.00;34.00;;;;;23.44;100.00;100846.88;5036914;28;45771;-72
2021/09/09 07:21:30;;;;;;;;;36.50;31.50;;;;;23.46;100.00;100844.97;5036896;28;45261;-71
2021/09/09 07:23:55;;;;;;;;;29.50;26.75;;;;;23.44;100.00;100840.69;5033148;28;45423;-72
2021/09/09 07:26:21;;;;;;;;;34.25;28.75;;;;;23.44;100.00;100841.53;5037036;28;45291;-70
2021/09/09 07:28:46;;;;;;;;;39.50;33.50;;;;;23.40;100.00;100840.03;5029986;28;45443;-70
2021/09/09 07:31:11;;;;;;;;;35.50;30.25;;;;;23.44;100.00;100848.69;5017208;28;45424;-70
2021/09/09 07:33:38;;;;;;;;;36.00;31.75;;;;;23.44;100.00;100852.19;5030200;28;46656;-71
2021/09/09 07:36:07;;;;;;;;;37.00;32.00;;;;;23.44;100.00;100854.00;5034718;28;45393;-71
2021/09/09 07:38:32;;;;;;;;;35.00;32.25;;;;;23.52;100.00;100851.69;5037065;28;45346;-71
2021/09/09 07:40:58;;;;;;;;;37.00;31.75;;;;;23.60;100.00;100857.41;5019227;28;45482;-70
2021/09/09 07:43:23;;;;;;;;;34.00;29.25;;;;;23.69;100.00;100856.78;5017428;28;45511;-70
2021/09/09 07:45:48;;;;;;;;;32.50;29.75;;;;;23.81;100.00;100858.63;5017818;28;45425;-70
2021/09/09 07:48:14;;;;;;;;;35.00;31.25;;;;;23.83;100.00;100851.38;4998630;28;45302;-70
2021/09/09 07:50:39;;;;;;;;;31.25;29.50;;;;;23.83;100.00;100861.19;5019236;28;45274;-70
2021/09/09 07:53:05;;;;;;;;;38.50;32.00;;;;;23.76;100.00;100859.88;5014749;28;45485;-70
2021/09/09 07:55:30;;;;;;;;;35.50;31.00;;;;;23.69;100.00;100869.25;5032633;28;45406;-70
2021/09/09 07:57:55;;;;;;;;;30.75;27.50;;;;;23.57;100.00;100857.63;5036555;28;45501;-72
2021/09/09 08:00:21;;;;;;;;;25.75;25.25;;;;;23.49;100.00;100851.88;5029343;28;45904;-70
2021/09/09 08:02:46;;;;;;;;;32.75;27.50;;;;;23.45;100.00;100847.72;5016275;28;46120;-70
2021/09/09 08:05:12;;;;;;;;;25.00;24.00;;;;;23.52;100.00;100860.53;5017304;28;45484;-70
2021/09/09 08:07:42;;;;;;;;;29.25;26.00;;;;;23.61;100.00;100860.94;5017484;28;45269;-70
2021/09/09 08:10:09;;;;;;;;;26.75;24.00;;;;;23.65;100.00;100867.75;4996997;28;45457;-71
2021/09/09 08:12:35;;;;;;;;;27.25;26.25;;;;;23.70;100.00;100871.81;4997924;28;45484;-70
2021/09/09 08:15:00;;;;;;;;;26.25;24.25;;;;;23.76;100.00;100870.56;5019464;28;45983;-70
2021/09/09 08:17:25;;;;;;;;;27.75;25.00;;;;;23.68;100.00;100856.88;5019873;28;45238;-72
2021/09/09 08:19:51;;;;;;;;;28.50;24.25;;;;;23.78;100.00;100871.34;5020016;28;45266;-71
2021/09/09 08:22:16;;;;;;;;;27.00;23.00;;;;;23.82;100.00;100860.34;5019735;28;46796;-70
2021/09/09 08:24:42;;;;;;;;;25.75;22.50;;;;;23.94;100.00;100871.13;5002893;28;45467;-69
2021/09/09 08:27:07;;;;;;;;;33.25;26.00;;;;;23.94;100.00;100869.31;5020507;28;45397;-69
2021/09/09 08:29:33;;;;;;;;;29.25;26.50;;;;;23.95;100.00;100873.69;5019829;28;45365;-69
2021/09/09 08:31:58;;;;;;;;;28.75;24.75;;;;;23.82;100.00;100880.81;5020647;28;45552;-70
2021/09/09 08:34:24;;;;;;;;;32.00;27.75;;;;;23.64;100.00;100879.38;5005045;28;45453;-69
2021/09/09 08:36:49;;;;;;;;;33.00;28.25;;;;;23.54;100.00;100876.47;5037762;28;45420;-70
2021/09/09 08:39:15;;;;;;;;;29.50;26.25;;;;;23.31;100.00;100877.97;5039984;28;45325;-71
2021/09/09 08:41:41;;;;;;;;;38.25;32.00;;;;;23.30;100.00;100888.69;5034976;28;46572;-70
2021/09/09 08:44:07;;;;;;;;;37.75;31.25;;;;;23.21;100.00;100876.84;5019156;28;45246;-70
2021/09/09 08:46:32;;;;;;;;;35.50;31.25;;;;;23.26;100.00;100880.03;5020516;28;45485;-70
2021/09/09 08:48:59;;;;;;;;;31.75;28.75;;;;;23.31;100.00;100882.41;5019599;28;45261;-70
2021/09/09 08:51:25;;;;;;;;;32.00;29.00;;;;;23.43;100.00;100887.81;5020163;28;46299;-70
2021/09/09 08:53:50;;;;;;;;;30.50;28.75;;;;;23.55;100.00;100890.63;5020377;28;45347;-70
2021/09/09 08:56:16;;;;;;;;;36.00;30.00;;;;;23.66;100.00;100888.13;5019702;28;45271;-70
2021/09/09 08:58:42;;;;;;;;;32.75;30.25;;;;;23.69;100.00;100872.78;5020118;28;45350;-70
2021/09/09 09:01:09;;;;;;;;;32.50;28.50;;;;;23.81;100.00;100874.63;5036184;28;46511;-70
2021/09/09 09:03:53;;;;;;;;;31.50;29.25;;;;;23.93;100.00;100893.44;5037218;28;45484;-71
2021/09/09 09:06:21;;;;;;;;;33.00;27.00;;;;;24.00;100.00;100894.75;5038199;28;45441;-70
2021/09/09 09:08:50;;;;;;;;;32.50;26.75;;;;;23.92;100.00;100897.06;5031511;28;45446;-71
2021/09/09 09:11:25;;;;;;;;;29.50;27.75;;;;;23.81;100.00;100884.44;5018883;28;45470;-71
2021/09/09 09:13:51;;;;;;;;;33.00;28.75;;;;;23.83;100.00;100899.38;5020321;28;45362;-70
2021/09/09 09:16:17;;;;;;;;;29.00;27.00;;;;;23.80;100.00;100888.94;5020420;28;45473;-71
2021/09/09 09:18:44;;;;;;;;;35.00;29.50;;;;;23.85;100.00;100896.63;5019182;28;45334;-71
2021/09/09 09:21:09;;;;;;;;;31.00;24.00;;;;;23.83;100.00;100896.72;5033541;28;46535;-71
2021/09/09 09:23:36;;;;;;;;;32.50;29.25;;;;;23.81;100.00;100897.78;5037618;28;45420;-71
2021/09/09 09:26:03;;;;;;;;;34.00;30.00;;;;;23.80;100.00;100890.75;5037763;28;45388;-71
2021/09/09 09:28:48;;;;;;;;;27.75;24.50;;;;;23.93;100.00;100894.28;5036295;28;46508;-70
2021/09/09 09:31:19;;;;;;;;;29.00;26.00;;;;;24.17;100.00;100898.91;5036850;28;45504;-71
2021/09/09 09:33:50;;;;;;;;;28.50;26.50;;;;;24.35;100.00;100901.19;5037264;28;45455;-71
2021/09/09 09:36:21;;;;;;;;;28.00;26.75;;;;;24.42;100.00;100891.78;5035335;28;45469;-71
2021/09/09 09:38:48;;;;;;;;;29.00;26.75;;;;;24.50;100.00;100893.09;5038873;28;45371;-71
2021/09/09 09:41:17;;;;;;;;;30.75;26.50;;;;;24.44;100.00;100891.69;5026046;28;47285;-71
2021/09/09 09:43:57;;;;;;;;;32.50;28.50;;;;;24.42;100.00;100890.94;5018231;28;45646;-71
2021/09/09 09:46:41;;;;;;;;;31.50;28.50;;;;;24.45;100.00;100895.25;5020663;28;45464;-71
2021/09/09 09:49:24;;;;;;;;;34.00;30.00;;;;;24.59;100.00;100901.31;5018742;28;45419;-70
2021/09/09 09:51:52;;;;;;;;;34.75;29.00;;;;;24.79;100.00;100883.88;5007813;28;46164;-71
2021/09/09 09:54:19;;;;;;;;;29.25;26.75;;;;;25.25;100.00;100883.25;4998614;28;45604;-72
2021/09/09 09:56:46;;;;;;;;;27.75;25.00;;;;;26.02;100.00;100889.94;5025060;28;45443;-69
2021/09/09 09:59:12;;;;;;;;;31.00;29.00;;;;;26.44;100.00;100877.75;5038709;28;45424;-71
2021/09/09 10:01:38;;;;;;;;;30.50;28.25;;;;;26.66;100.00;100886.78;5025366;28;46002;-71
2021/09/09 10:04:06;;;;;;;;;27.75;25.75;;;;;26.71;100.00;100896.19;5019247;28;45421;-72
2021/09/09 10:06:33;;;;;;;;;33.75;25.75;;;;;26.72;100.00;100887.16;5019641;28;45496;-71
2021/09/09 10:09:00;;;;;;;;;24.50;21.25;;;;;26.76;100.00;100887.78;5036766;28;45250;-70
2021/09/09 10:11:27;;;;;;;;;27.00;24.00;;;;;26.96;100.00;100883.50;5036074;28;46263;-70
2021/09/09 10:13:54;;;;;;;;;27.75;25.75;;;;;27.25;100.00;100899.91;5038361;28;45336;-71
2021/09/09 10:16:22;;;;;;;;;24.50;22.50;;;;;27.53;100.00;100890.44;5020204;28;45758;-71
2021/09/09 10:18:47;;;;;;;;;20.25;19.50;;;;;28.10;100.00;100889.25;5019237;28;45418;-70
2021/09/09 10:21:35;;;;;;;;;20.50;19.50;;;;;29.82;100.00;100876.56;5017984;28;45350;-70
2021/09/09 10:24:15;;;;;;;;;25.50;21.75;;;;;30.58;100.00;100885.53;5032943;28;45502;-71
2021/09/09 10:26:41;;;;;;;;;20.50;20.25;;;;;31.51;100.00;100873.69;5020999;28;45433;-71
2021/09/09 10:29:10;;;;;;;;;23.75;21.00;;;;;32.08;100.00;100870.63;5036185;28;45377;-70
2021/09/09 10:31:41;;;;;;;;;20.00;19.50;;;;;31.73;100.00;100883.19;5003575;28;47329;-70
2021/09/09 10:34:22;;;;;;;;;18.00;14.75;;;;;31.03;100.00;100882.06;5025905;28;45744;-70
2021/09/09 10:36:48;;;;;;;;;19.50;17.00;;;;;30.44;100.00;100885.97;5034903;28;45543;-71
2021/09/09 10:39:19;;;;;;;;;21.25;18.75;;;;;30.14;100.00;100874.44;5034451;28;45584;-71
2021/09/09 10:41:45;;;;;;;;;17.50;16.50;;;;;30.12;100.00;100887.22;5035749;28;46123;-70
2021/09/09 10:44:11;;;;;;;;;20.25;18.50;;;;;30.64;100.00;100881.41;5034756;28;45828;-70
2021/09/09 10:46:41;;;;;;;;;16.00;16.00;;;;;31.11;100.00;100882.16;5017667;28;45496;-70
2021/09/09 10:49:15;;;;;;;;;13.25;12.50;;;;;32.50;100.00;100887.84;5017797;28;45442;-70
2021/09/09 10:52:04;;;;;;;;;16.00;15.50;;;;;32.61;100.00;100888.56;5035513;28;45413;-71
2021/09/09 10:54:31;;;;;;;;;17.00;16.25;;;;;33.35;100.00;100891.44;5017649;28;45608;-71
2021/09/09 10:57:12;;;;;;;;;13.00;11.75;;;;;35.00;100.00;100889.28;5018750;28;45553;-71
2021/09/09 10:59:48;;;;;;;;;16.75;15.50;;;;;35.87;100.00;100884.50;5000249;28;45283;-71